sensor_id;sensor_type;location;lat;lon;timestamp;P1;durP1;ratioP1;P2;durP2;ratioP2
26963;SDS011;14521;48.148;-1.656;2023-10-13T00:01:13;6.43;;;2.03;;
26963;SDS011;14521;48.148;-1.656;2023-10-13T00:04:35;6.10;;;2.33;;
26963;SDS011;14521;48.148;-1.656;2023-10-13T00:08:02;7.00;;;2.30;;
26963;SDS011;14521;48.148;-1.656;2023-10-13T00:11:25;6.85;;;2.00;;
26963;SDS011;14521;48.148;-1.656;2023-10-13T00:14:48;4.70;;;2.00;;
26963;SDS011;14521;48.148;-1.656;2023-10-13T00:18:12;5.68;;;2.60;;
26963;SDS011;14521;48.148;-1.656;2023-10-13T00:21:35;7.78;;;2.20;;
26963;SDS011;14521;48.148;-1.656;2023-10-13T00:24:58;4.63;;;2.15;;
26963;SDS011;14521;48.148;-1.656;2023-10-13T00:28:21;12.25;;;2.10;;
26963;SDS011;14521;48.148;-1.656;2023-10-13T00:31:47;7.60;;;2.05;;
26963;SDS011;14521;48.148;-1.656;2023-10-13T00:35:11;5.05;;;1.95;;
26963;SDS011;14521;48.148;-1.656;2023-10-13T00:38:36;9.55;;;2.50;;
26963;SDS011;14521;48.148;-1.656;2023-10-13T00:41:58;8.15;;;2.40;;
26963;SDS011;14521;48.148;-1.656;2023-10-13T00:45:28;11.93;;;2.35;;
26963;SDS011;14521;48.148;-1.656;2023-10-13T00:48:52;6.13;;;2.65;;
26963;SDS011;14521;48.148;-1.656;2023-10-13T00:52:15;6.57;;;1.95;;
26963;SDS011;14521;48.148;-1.656;2023-10-13T00:55:40;6.43;;;2.60;;
26963;SDS011;14521;48.148;-1.656;2023-10-13T00:59:03;6.82;;;2.13;;
26963;SDS011;14521;48.148;-1.656;2023-10-13T01:02:25;9.60;;;2.38;;
26963;SDS011;14521;48.148;-1.656;2023-10-13T01:05:57;10.32;;;2.22;;
26963;SDS011;14521;48.148;-1.656;2023-10-13T01:09:20;5.78;;;2.42;;
26963;SDS011;14521;48.148;-1.656;2023-10-13T01:12:46;9.65;;;2.00;;
26963;SDS011;14521;48.148;-1.656;2023-10-13T01:16:09;5.57;;;2.00;;
26963;SDS011;14521;48.148;-1.656;2023-10-13T01:19:36;9.88;;;2.25;;
26963;SDS011;14521;48.148;-1.656;2023-10-13T01:23:07;5.35;;;1.95;;
26963;SDS011;14521;48.148;-1.656;2023-10-13T01:26:39;9.23;;;2.20;;
26963;SDS011;14521;48.148;-1.656;2023-10-13T01:30:04;8.18;;;2.30;;
26963;SDS011;14521;48.148;-1.656;2023-10-13T01:33:31;10.65;;;2.38;;
26963;SDS011;14521;48.148;-1.656;2023-10-13T01:36:58;12.75;;;2.40;;
26963;SDS011;14521;48.148;-1.656;2023-10-13T01:40:27;6.95;;;2.40;;
26963;SDS011;14521;48.148;-1.656;2023-10-13T01:43:55;8.55;;;2.25;;
26963;SDS011;14521;48.148;-1.656;2023-10-13T01:47:18;10.95;;;2.70;;
26963;SDS011;14521;48.148;-1.656;2023-10-13T01:50:43;7.22;;;2.50;;
26963;SDS011;14521;48.148;-1.656;2023-10-13T01:54:09;9.77;;;2.25;;
26963;SDS011;14521;48.148;-1.656;2023-10-13T01:57:34;9.48;;;2.80;;
26963;SDS011;14521;48.148;-1.656;2023-10-13T02:00:57;8.07;;;2.70;;
26963;SDS011;14521;48.148;-1.656;2023-10-13T02:04:21;4.28;;;2.33;;
26963;SDS011;14521;48.148;-1.656;2023-10-13T02:07:44;8.65;;;2.13;;
26963;SDS011;14521;48.148;-1.656;2023-10-13T02:11:18;4.40;;;2.65;;
26963;SDS011;14521;48.148;-1.656;2023-10-13T02:14:40;4.30;;;2.30;;
26963;SDS011;14521;48.148;-1.656;2023-10-13T02:18:04;7.95;;;2.90;;
26963;SDS011;14521;48.148;-1.656;2023-10-13T02:21:26;6.10;;;2.88;;
26963;SDS011;14521;48.148;-1.656;2023-10-13T02:24:53;4.40;;;2.45;;
26963;SDS011;14521;48.148;-1.656;2023-10-13T02:28:23;3.90;;;2.67;;
26963;SDS011;14521;48.148;-1.656;2023-10-13T02:31:50;5.10;;;2.67;;
26963;SDS011;14521;48.148;-1.656;2023-10-13T02:35:19;5.53;;;2.80;;
26963;SDS011;14521;48.148;-1.656;2023-10-13T02:38:51;9.30;;;2.60;;
26963;SDS011;14521;48.148;-1.656;2023-10-13T02:42:14;6.38;;;2.97;;
26963;SDS011;14521;48.148;-1.656;2023-10-13T02:45:51;10.32;;;2.55;;
26963;SDS011;14521;48.148;-1.656;2023-10-13T02:49:19;6.72;;;2.60;;
26963;SDS011;14521;48.148;-1.656;2023-10-13T02:52:42;6.15;;;2.63;;
26963;SDS011;14521;48.148;-1.656;2023-10-13T02:56:04;10.10;;;2.80;;
26963;SDS011;14521;48.148;-1.656;2023-10-13T02:59:28;7.00;;;3.40;;
26963;SDS011;14521;48.148;-1.656;2023-10-13T03:03:21;6.05;;;3.00;;
26963;SDS011;14521;48.148;-1.656;2023-10-13T03:06:44;6.10;;;3.15;;
26963;SDS011;14521;48.148;-1.656;2023-10-13T03:10:09;9.90;;;3.65;;
26963;SDS011;14521;48.148;-1.656;2023-10-13T03:13:32;5.80;;;3.20;;
26963;SDS011;14521;48.148;-1.656;2023-10-13T03:16:55;5.20;;;2.78;;
26963;SDS011;14521;48.148;-1.656;2023-10-13T03:20:27;4.53;;;2.47;;
26963;SDS011;14521;48.148;-1.656;2023-10-13T03:23:53;11.05;;;4.10;;
26963;SDS011;14521;48.148;-1.656;2023-10-13T03:27:17;9.70;;;3.53;;
26963;SDS011;14521;48.148;-1.656;2023-10-13T03:30:44;7.38;;;3.47;;
26963;SDS011;14521;48.148;-1.656;2023-10-13T03:34:08;8.55;;;3.25;;
26963;SDS011;14521;48.148;-1.656;2023-10-13T03:37:34;7.35;;;2.85;;
26963;SDS011;14521;48.148;-1.656;2023-10-13T03:41:02;8.27;;;3.38;;
26963;SDS011;14521;48.148;-1.656;2023-10-13T03:44:51;3.88;;;2.45;;
26963;SDS011;14521;48.148;-1.656;2023-10-13T03:48:16;12.82;;;3.38;;
26963;SDS011;14521;48.148;-1.656;2023-10-13T03:51:49;9.95;;;2.90;;
26963;SDS011;14521;48.148;-1.656;2023-10-13T03:55:12;6.75;;;3.38;;
26963;SDS011;14521;48.148;-1.656;2023-10-13T03:58:40;9.10;;;3.90;;
26963;SDS011;14521;48.148;-1.656;2023-10-13T04:02:10;9.73;;;3.13;;
26963;SDS011;14521;48.148;-1.656;2023-10-13T04:05:39;5.50;;;3.20;;
26963;SDS011;14521;48.148;-1.656;2023-10-13T04:09:03;7.63;;;3.95;;
26963;SDS011;14521;48.148;-1.656;2023-10-13T04:12:44;7.28;;;3.28;;
26963;SDS011;14521;48.148;-1.656;2023-10-13T04:16:25;11.02;;;4.10;;
26963;SDS011;14521;48.148;-1.656;2023-10-13T04:19:48;10.68;;;3.25;;
26963;SDS011;14521;48.148;-1.656;2023-10-13T04:23:29;7.90;;;3.83;;
26963;SDS011;14521;48.148;-1.656;2023-10-13T04:27:11;7.32;;;3.42;;
26963;SDS011;14521;48.148;-1.656;2023-10-13T04:30:35;10.65;;;3.65;;
26963;SDS011;14521;48.148;-1.656;2023-10-13T04:34:14;8.85;;;4.00;;
26963;SDS011;14521;48.148;-1.656;2023-10-13T04:37:41;7.25;;;3.60;;
26963;SDS011;14521;48.148;-1.656;2023-10-13T04:45:09;9.00;;;3.45;;
26963;SDS011;14521;48.148;-1.656;2023-10-13T04:48:50;7.40;;;3.60;;
26963;SDS011;14521;48.148;-1.656;2023-10-13T04:52:12;9.98;;;3.03;;
26963;SDS011;14521;48.148;-1.656;2023-10-13T04:55:56;7.68;;;3.40;;
26963;SDS011;14521;48.148;-1.656;2023-10-13T04:59:25;5.45;;;3.50;;
26963;SDS011;14521;48.148;-1.656;2023-10-13T05:03:19;6.63;;;3.22;;
26963;SDS011;14521;48.148;-1.656;2023-10-13T05:07:00;7.43;;;3.55;;
26963;SDS011;14521;48.148;-1.656;2023-10-13T05:10:51;8.85;;;3.80;;
26963;SDS011;14521;48.148;-1.656;2023-10-13T05:14:32;10.60;;;3.25;;
26963;SDS011;14521;48.148;-1.656;2023-10-13T05:18:13;4.68;;;3.25;;
26963;SDS011;14521;48.148;-1.656;2023-10-13T05:21:53;6.93;;;4.03;;
26963;SDS011;14521;48.148;-1.656;2023-10-13T05:25:35;7.68;;;3.80;;
26963;SDS011;14521;48.148;-1.656;2023-10-13T05:29:17;10.68;;;3.75;;
26963;SDS011;14521;48.148;-1.656;2023-10-13T05:32:58;12.30;;;3.90;;
26963;SDS011;14521;48.148;-1.656;2023-10-13T05:36:38;9.07;;;3.65;;
26963;SDS011;14521;48.148;-1.656;2023-10-13T05:40:19;11.38;;;4.07;;
26963;SDS011;14521;48.148;-1.656;2023-10-13T05:44:00;4.38;;;3.90;;
26963;SDS011;14521;48.148;-1.656;2023-10-13T05:47:41;5.68;;;3.28;;
26963;SDS011;14521;48.148;-1.656;2023-10-13T05:51:04;5.30;;;3.70;;
26963;SDS011;14521;48.148;-1.656;2023-10-13T05:54:45;9.30;;;3.88;;
26963;SDS011;14521;48.148;-1.656;2023-10-13T05:58:26;6.43;;;3.78;;
26963;SDS011;14521;48.148;-1.656;2023-10-13T06:02:07;5.93;;;3.95;;
26963;SDS011;14521;48.148;-1.656;2023-10-13T06:05:49;10.45;;;3.72;;
26963;SDS011;14521;48.148;-1.656;2023-10-13T06:09:30;15.35;;;3.75;;
26963;SDS011;14521;48.148;-1.656;2023-10-13T06:13:11;7.68;;;3.72;;
26963;SDS011;14521;48.148;-1.656;2023-10-13T06:16:52;8.93;;;3.47;;
26963;SDS011;14521;48.148;-1.656;2023-10-13T06:20:37;9.43;;;3.80;;
26963;SDS011;14521;48.148;-1.656;2023-10-13T06:24:19;7.75;;;4.47;;
26963;SDS011;14521;48.148;-1.656;2023-10-13T06:28:00;11.25;;;3.97;;
26963;SDS011;14521;48.148;-1.656;2023-10-13T06:31:41;10.93;;;4.22;;
26963;SDS011;14521;48.148;-1.656;2023-10-13T06:35:08;7.95;;;4.32;;
26963;SDS011;14521;48.148;-1.656;2023-10-13T06:38:30;8.77;;;4.60;;
26963;SDS011;14521;48.148;-1.656;2023-10-13T06:41:58;9.00;;;4.07;;
26963;SDS011;14521;48.148;-1.656;2023-10-13T06:45:20;7.10;;;4.32;;
26963;SDS011;14521;48.148;-1.656;2023-10-13T06:48:43;12.70;;;4.20;;
26963;SDS011;14521;48.148;-1.656;2023-10-13T06:52:05;8.32;;;3.95;;
26963;SDS011;14521;48.148;-1.656;2023-10-13T06:55:28;13.52;;;3.75;;
26963;SDS011;14521;48.148;-1.656;2023-10-13T06:58:56;8.00;;;4.20;;
26963;SDS011;14521;48.148;-1.656;2023-10-13T07:02:21;7.82;;;4.60;;
26963;SDS011;14521;48.148;-1.656;2023-10-13T07:05:49;6.40;;;4.22;;
26963;SDS011;14521;48.148;-1.656;2023-10-13T07:09:12;9.00;;;4.68;;
26963;SDS011;14521;48.148;-1.656;2023-10-13T07:12:57;11.32;;;4.47;;
26963;SDS011;14521;48.148;-1.656;2023-10-13T07:16:22;7.53;;;3.80;;
26963;SDS011;14521;48.148;-1.656;2023-10-13T07:19:47;8.60;;;4.07;;
26963;SDS011;14521;48.148;-1.656;2023-10-13T07:23:15;8.40;;;4.10;;
26963;SDS011;14521;48.148;-1.656;2023-10-13T07:26:41;7.25;;;4.18;;
26963;SDS011;14521;48.148;-1.656;2023-10-13T07:30:24;19.33;;;4.53;;
26963;SDS011;14521;48.148;-1.656;2023-10-13T07:33:48;11.13;;;4.20;;
26963;SDS011;14521;48.148;-1.656;2023-10-13T07:37:10;10.75;;;4.22;;
26963;SDS011;14521;48.148;-1.656;2023-10-13T07:40:34;9.23;;;4.40;;
26963;SDS011;14521;48.148;-1.656;2023-10-13T07:44:02;9.80;;;4.22;;
26963;SDS011;14521;48.148;-1.656;2023-10-13T07:47:26;11.75;;;4.38;;
26963;SDS011;14521;48.148;-1.656;2023-10-13T07:50:59;14.05;;;5.30;;
26963;SDS011;14521;48.148;-1.656;2023-10-13T07:54:26;15.77;;;6.07;;
26963;SDS011;14521;48.148;-1.656;2023-10-13T07:57:49;10.88;;;4.28;;
26963;SDS011;14521;48.148;-1.656;2023-10-13T08:01:18;16.77;;;4.53;;
26963;SDS011;14521;48.148;-1.656;2023-10-13T08:04:41;14.55;;;4.57;;
26963;SDS011;14521;48.148;-1.656;2023-10-13T08:08:04;13.68;;;4.07;;
26963;SDS011;14521;48.148;-1.656;2023-10-13T08:11:36;11.93;;;4.25;;
26963;SDS011;14521;48.148;-1.656;2023-10-13T08:15:02;6.82;;;4.50;;
26963;SDS011;14521;48.148;-1.656;2023-10-13T08:18:43;10.07;;;4.20;;
26963;SDS011;14521;48.148;-1.656;2023-10-13T08:22:05;10.05;;;4.50;;
26963;SDS011;14521;48.148;-1.656;2023-10-13T08:25:41;13.32;;;4.35;;
26963;SDS011;14521;48.148;-1.656;2023-10-13T08:29:21;7.88;;;4.32;;
26963;SDS011;14521;48.148;-1.656;2023-10-13T08:32:44;12.63;;;4.20;;
26963;SDS011;14521;48.148;-1.656;2023-10-13T08:36:21;8.68;;;3.95;;
26963;SDS011;14521;48.148;-1.656;2023-10-13T08:39:51;11.02;;;4.85;;
26963;SDS011;14521;48.148;-1.656;2023-10-13T08:43:49;10.43;;;4.78;;
26963;SDS011;14521;48.148;-1.656;2023-10-13T08:47:14;11.63;;;4.15;;
26963;SDS011;14521;48.148;-1.656;2023-10-13T08:50:50;12.52;;;4.55;;
26963;SDS011;14521;48.148;-1.656;2023-10-13T08:54:14;9.88;;;3.92;;
26963;SDS011;14521;48.148;-1.656;2023-10-13T08:57:56;8.02;;;4.03;;
26963;SDS011;14521;48.148;-1.656;2023-10-13T09:01:25;20.80;;;4.60;;
26963;SDS011;14521;48.148;-1.656;2023-10-13T09:05:07;11.65;;;4.00;;
26963;SDS011;14521;48.148;-1.656;2023-10-13T09:08:51;15.15;;;4.00;;
26963;SDS011;14521;48.148;-1.656;2023-10-13T09:12:30;12.32;;;5.13;;
26963;SDS011;14521;48.148;-1.656;2023-10-13T09:15:56;14.02;;;4.18;;
26963;SDS011;14521;48.148;-1.656;2023-10-13T09:19:21;14.50;;;4.18;;
26963;SDS011;14521;48.148;-1.656;2023-10-13T09:22:43;10.15;;;3.70;;
26963;SDS011;14521;48.148;-1.656;2023-10-13T09:26:16;8.10;;;3.58;;
26963;SDS011;14521;48.148;-1.656;2023-10-13T09:29:40;12.38;;;4.00;;
26963;SDS011;14521;48.148;-1.656;2023-10-13T09:33:04;15.27;;;4.03;;
26963;SDS011;14521;48.148;-1.656;2023-10-13T09:36:27;10.35;;;3.97;;
26963;SDS011;14521;48.148;-1.656;2023-10-13T09:39:51;10.02;;;3.80;;
26963;SDS011;14521;48.148;-1.656;2023-10-13T09:43:18;11.98;;;4.25;;
26963;SDS011;14521;48.148;-1.656;2023-10-13T09:46:41;14.93;;;3.90;;
26963;SDS011;14521;48.148;-1.656;2023-10-13T09:50:07;13.07;;;3.75;;
26963;SDS011;14521;48.148;-1.656;2023-10-13T09:53:36;16.42;;;3.60;;
26963;SDS011;14521;48.148;-1.656;2023-10-13T09:57:21;13.63;;;3.03;;
26963;SDS011;14521;48.148;-1.656;2023-10-13T10:00:50;12.80;;;3.13;;
26963;SDS011;14521;48.148;-1.656;2023-10-13T10:04:50;10.52;;;3.70;;
26963;SDS011;14521;48.148;-1.656;2023-10-13T10:08:33;6.82;;;2.70;;
26963;SDS011;14521;48.148;-1.656;2023-10-13T10:15:42;15.80;;;3.28;;
26963;SDS011;14521;48.148;-1.656;2023-10-13T10:19:08;17.35;;;3.88;;
26963;SDS011;14521;48.148;-1.656;2023-10-13T10:22:32;22.42;;;4.32;;
26963;SDS011;14521;48.148;-1.656;2023-10-13T10:25:55;28.55;;;4.68;;
26963;SDS011;14521;48.148;-1.656;2023-10-13T10:29:29;17.55;;;4.18;;
26963;SDS011;14521;48.148;-1.656;2023-10-13T10:32:54;18.90;;;4.85;;
26963;SDS011;14521;48.148;-1.656;2023-10-13T10:36:30;16.52;;;3.63;;
26963;SDS011;14521;48.148;-1.656;2023-10-13T10:39:53;16.00;;;3.90;;
26963;SDS011;14521;48.148;-1.656;2023-10-13T10:43:18;16.88;;;3.50;;
26963;SDS011;14521;48.148;-1.656;2023-10-13T10:46:53;21.10;;;4.55;;
26963;SDS011;14521;48.148;-1.656;2023-10-13T10:50:24;17.52;;;4.60;;
26963;SDS011;14521;48.148;-1.656;2023-10-13T10:53:57;18.13;;;3.60;;
26963;SDS011;14521;48.148;-1.656;2023-10-13T10:57:33;17.88;;;3.72;;
26963;SDS011;14521;48.148;-1.656;2023-10-13T11:01:04;19.80;;;4.32;;
26963;SDS011;14521;48.148;-1.656;2023-10-13T11:04:33;19.30;;;3.60;;
26963;SDS011;14521;48.148;-1.656;2023-10-13T11:07:56;23.75;;;3.90;;
26963;SDS011;14521;48.148;-1.656;2023-10-13T11:11:28;14.70;;;4.15;;
26963;SDS011;14521;48.148;-1.656;2023-10-13T11:15:14;16.90;;;3.67;;
26963;SDS011;14521;48.148;-1.656;2023-10-13T11:18:43;21.30;;;4.18;;
26963;SDS011;14521;48.148;-1.656;2023-10-13T11:22:14;19.07;;;3.50;;
26963;SDS011;14521;48.148;-1.656;2023-10-13T11:26:13;13.00;;;3.72;;
26963;SDS011;14521;48.148;-1.656;2023-10-13T11:29:35;12.15;;;3.35;;
26963;SDS011;14521;48.148;-1.656;2023-10-13T11:33:03;11.43;;;3.83;;
26963;SDS011;14521;48.148;-1.656;2023-10-13T11:36:28;16.13;;;3.58;;
26963;SDS011;14521;48.148;-1.656;2023-10-13T11:39:54;14.88;;;4.47;;
26963;SDS011;14521;48.148;-1.656;2023-10-13T11:43:17;16.67;;;3.90;;
26963;SDS011;14521;48.148;-1.656;2023-10-13T11:46:44;22.92;;;4.40;;
26963;SDS011;14521;48.148;-1.656;2023-10-13T11:50:17;16.02;;;4.00;;
26963;SDS011;14521;48.148;-1.656;2023-10-13T11:53:54;25.58;;;5.22;;
26963;SDS011;14521;48.148;-1.656;2023-10-13T11:57:17;15.68;;;5.00;;
26963;SDS011;14521;48.148;-1.656;2023-10-13T12:00:41;18.63;;;4.53;;
26963;SDS011;14521;48.148;-1.656;2023-10-13T12:04:15;16.05;;;3.92;;
26963;SDS011;14521;48.148;-1.656;2023-10-13T12:07:55;13.88;;;3.83;;
26963;SDS011;14521;48.148;-1.656;2023-10-13T12:11:25;17.80;;;4.60;;
26963;SDS011;14521;48.148;-1.656;2023-10-13T12:14:54;17.77;;;5.55;;
26963;SDS011;14521;48.148;-1.656;2023-10-13T12:18:18;22.48;;;6.25;;
26963;SDS011;14521;48.148;-1.656;2023-10-13T12:21:41;26.45;;;7.68;;
26963;SDS011;14521;48.148;-1.656;2023-10-13T12:25:05;21.10;;;9.53;;
26963;SDS011;14521;48.148;-1.656;2023-10-13T12:28:47;31.63;;;10.07;;
26963;SDS011;14521;48.148;-1.656;2023-10-13T12:32:13;33.58;;;10.38;;
26963;SDS011;14521;48.148;-1.656;2023-10-13T12:35:42;31.48;;;9.40;;
26963;SDS011;14521;48.148;-1.656;2023-10-13T12:39:23;21.23;;;8.30;;
26963;SDS011;14521;48.148;-1.656;2023-10-13T12:43:04;26.98;;;9.32;;
26963;SDS011;14521;48.148;-1.656;2023-10-13T12:46:45;18.90;;;8.10;;
26963;SDS011;14521;48.148;-1.656;2023-10-13T12:50:26;25.83;;;8.95;;
26963;SDS011;14521;48.148;-1.656;2023-10-13T12:54:05;29.65;;;8.75;;
26963;SDS011;14521;48.148;-1.656;2023-10-13T12:57:42;22.45;;;7.97;;
26963;SDS011;14521;48.148;-1.656;2023-10-13T13:01:07;24.13;;;8.32;;
26963;SDS011;14521;48.148;-1.656;2023-10-13T13:04:30;17.65;;;7.95;;
26963;SDS011;14521;48.148;-1.656;2023-10-13T13:07:58;20.58;;;8.68;;
26963;SDS011;14521;48.148;-1.656;2023-10-13T13:11:21;22.08;;;8.18;;
26963;SDS011;14521;48.148;-1.656;2023-10-13T13:14:47;15.38;;;7.47;;
26963;SDS011;14521;48.148;-1.656;2023-10-13T13:18:09;17.52;;;7.78;;
26963;SDS011;14521;48.148;-1.656;2023-10-13T13:21:33;14.38;;;6.75;;
26963;SDS011;14521;48.148;-1.656;2023-10-13T13:24:56;14.25;;;7.55;;
26963;SDS011;14521;48.148;-1.656;2023-10-13T13:28:18;20.77;;;7.15;;
26963;SDS011;14521;48.148;-1.656;2023-10-13T13:31:41;22.27;;;7.35;;
26963;SDS011;14521;48.148;-1.656;2023-10-13T13:35:05;16.63;;;7.13;;
26963;SDS011;14521;48.148;-1.656;2023-10-13T13:38:35;16.13;;;7.25;;
26963;SDS011;14521;48.148;-1.656;2023-10-13T13:41:57;14.68;;;6.50;;
26963;SDS011;14521;48.148;-1.656;2023-10-13T13:45:20;13.95;;;6.30;;
26963;SDS011;14521;48.148;-1.656;2023-10-13T13:48:51;18.73;;;6.80;;
26963;SDS011;14521;48.148;-1.656;2023-10-13T13:52:20;16.40;;;7.00;;
26963;SDS011;14521;48.148;-1.656;2023-10-13T13:55:55;20.52;;;7.47;;
26963;SDS011;14521;48.148;-1.656;2023-10-13T13:59:18;19.65;;;7.40;;
26963;SDS011;14521;48.148;-1.656;2023-10-13T14:02:42;18.40;;;7.05;;
26963;SDS011;14521;48.148;-1.656;2023-10-13T14:06:09;17.05;;;6.90;;
26963;SDS011;14521;48.148;-1.656;2023-10-13T14:09:38;10.73;;;6.13;;
26963;SDS011;14521;48.148;-1.656;2023-10-13T14:13:05;14.18;;;5.93;;
26963;SDS011;14521;48.148;-1.656;2023-10-13T14:16:34;22.85;;;6.65;;
26963;SDS011;14521;48.148;-1.656;2023-10-13T14:19:59;13.75;;;6.07;;
26963;SDS011;14521;48.148;-1.656;2023-10-13T14:23:21;15.05;;;6.90;;
26963;SDS011;14521;48.148;-1.656;2023-10-13T14:26:44;16.75;;;6.20;;
26963;SDS011;14521;48.148;-1.656;2023-10-13T14:30:07;11.70;;;5.72;;
26963;SDS011;14521;48.148;-1.656;2023-10-13T14:33:29;13.10;;;5.28;;
26963;SDS011;14521;48.148;-1.656;2023-10-13T14:36:53;13.02;;;5.70;;
26963;SDS011;14521;48.148;-1.656;2023-10-13T14:40:16;13.05;;;5.63;;
26963;SDS011;14521;48.148;-1.656;2023-10-13T14:43:43;16.33;;;5.65;;
26963;SDS011;14521;48.148;-1.656;2023-10-13T14:47:12;8.13;;;5.18;;
26963;SDS011;14521;48.148;-1.656;2023-10-13T14:50:34;13.50;;;5.07;;
26963;SDS011;14521;48.148;-1.656;2023-10-13T14:54:04;12.35;;;5.07;;
26963;SDS011;14521;48.148;-1.656;2023-10-13T14:57:27;10.30;;;4.07;;
26963;SDS011;14521;48.148;-1.656;2023-10-13T15:00:49;10.32;;;4.97;;
26963;SDS011;14521;48.148;-1.656;2023-10-13T15:04:13;6.18;;;4.15;;
26963;SDS011;14521;48.148;-1.656;2023-10-13T15:07:36;13.05;;;4.90;;
26963;SDS011;14521;48.148;-1.656;2023-10-13T15:11:07;12.15;;;4.00;;
26963;SDS011;14521;48.148;-1.656;2023-10-13T15:14:34;8.63;;;3.90;;
26963;SDS011;14521;48.148;-1.656;2023-10-13T15:17:58;8.53;;;3.87;;
26963;SDS011;14521;48.148;-1.656;2023-10-13T15:21:23;8.27;;;3.40;;
26963;SDS011;14521;48.148;-1.656;2023-10-13T15:25:01;9.55;;;3.38;;
26963;SDS011;14521;48.148;-1.656;2023-10-13T15:28:42;9.20;;;3.67;;
26963;SDS011;14521;48.148;-1.656;2023-10-13T15:32:11;11.70;;;3.50;;
26963;SDS011;14521;48.148;-1.656;2023-10-13T15:35:40;9.07;;;3.17;;
26963;SDS011;14521;48.148;-1.656;2023-10-13T15:39:07;8.63;;;3.30;;
26963;SDS011;14521;48.148;-1.656;2023-10-13T15:42:31;9.18;;;3.50;;
26963;SDS011;14521;48.148;-1.656;2023-10-13T15:45:54;5.72;;;2.53;;
26963;SDS011;14521;48.148;-1.656;2023-10-13T15:49:19;8.85;;;2.78;;
26963;SDS011;14521;48.148;-1.656;2023-10-13T15:52:42;7.65;;;2.80;;
26963;SDS011;14521;48.148;-1.656;2023-10-13T15:56:07;8.65;;;2.42;;
26963;SDS011;14521;48.148;-1.656;2023-10-13T15:59:36;10.30;;;2.97;;
26963;SDS011;14521;48.148;-1.656;2023-10-13T16:02:58;5.97;;;2.53;;
26963;SDS011;14521;48.148;-1.656;2023-10-13T16:06:21;8.07;;;2.72;;
26963;SDS011;14521;48.148;-1.656;2023-10-13T16:09:46;9.10;;;2.47;;
26963;SDS011;14521;48.148;-1.656;2023-10-13T16:13:20;7.70;;;2.20;;
26963;SDS011;14521;48.148;-1.656;2023-10-13T16:16:43;8.45;;;2.30;;
26963;SDS011;14521;48.148;-1.656;2023-10-13T16:20:07;7.38;;;2.08;;
26963;SDS011;14521;48.148;-1.656;2023-10-13T16:23:39;7.95;;;2.13;;
26963;SDS011;14521;48.148;-1.656;2023-10-13T16:27:01;8.65;;;2.13;;
26963;SDS011;14521;48.148;-1.656;2023-10-13T16:30:23;5.60;;;2.10;;
26963;SDS011;14521;48.148;-1.656;2023-10-13T16:33:46;12.00;;;2.15;;
26963;SDS011;14521;48.148;-1.656;2023-10-13T16:37:08;4.75;;;1.70;;
26963;SDS011;14521;48.148;-1.656;2023-10-13T16:40:31;10.95;;;2.40;;
26963;SDS011;14521;48.148;-1.656;2023-10-13T16:43:53;9.68;;;1.70;;
26963;SDS011;14521;48.148;-1.656;2023-10-13T16:47:16;11.02;;;1.83;;
26963;SDS011;14521;48.148;-1.656;2023-10-13T16:50:38;8.23;;;1.90;;
26963;SDS011;14521;48.148;-1.656;2023-10-13T16:54:10;8.05;;;1.90;;
26963;SDS011;14521;48.148;-1.656;2023-10-13T16:57:32;5.35;;;2.20;;
26963;SDS011;14521;48.148;-1.656;2023-10-13T17:00:55;7.55;;;2.85;;
26963;SDS011;14521;48.148;-1.656;2023-10-13T17:04:17;21.02;;;4.97;;
26963;SDS011;14521;48.148;-1.656;2023-10-13T17:07:44;26.95;;;5.95;;
26963;SDS011;14521;48.148;-1.656;2023-10-13T17:11:11;26.83;;;6.20;;
26963;SDS011;14521;48.148;-1.656;2023-10-13T17:14:38;27.42;;;6.38;;
26963;SDS011;14521;48.148;-1.656;2023-10-13T17:18:03;21.13;;;4.90;;
26963;SDS011;14521;48.148;-1.656;2023-10-13T17:21:29;22.90;;;4.90;;
26963;SDS011;14521;48.148;-1.656;2023-10-13T17:24:55;16.33;;;4.70;;
26963;SDS011;14521;48.148;-1.656;2023-10-13T17:28:17;16.40;;;3.95;;
26963;SDS011;14521;48.148;-1.656;2023-10-13T17:31:39;12.95;;;3.60;;
26963;SDS011;14521;48.148;-1.656;2023-10-13T17:35:02;13.85;;;4.03;;
26963;SDS011;14521;48.148;-1.656;2023-10-13T17:38:25;16.23;;;3.55;;
26963;SDS011;14521;48.148;-1.656;2023-10-13T17:41:47;19.35;;;3.15;;
26963;SDS011;14521;48.148;-1.656;2023-10-13T17:45:10;17.40;;;2.92;;
26963;SDS011;14521;48.148;-1.656;2023-10-13T17:48:33;15.75;;;3.00;;
26963;SDS011;14521;48.148;-1.656;2023-10-13T17:51:56;16.42;;;3.47;;
26963;SDS011;14521;48.148;-1.656;2023-10-13T17:55:19;15.27;;;3.45;;
26963;SDS011;14521;48.148;-1.656;2023-10-13T17:58:42;13.40;;;2.80;;
26963;SDS011;14521;48.148;-1.656;2023-10-13T18:02:05;14.75;;;2.88;;
26963;SDS011;14521;48.148;-1.656;2023-10-13T18:05:28;10.25;;;2.25;;
26963;SDS011;14521;48.148;-1.656;2023-10-13T18:08:57;7.43;;;1.90;;
26963;SDS011;14521;48.148;-1.656;2023-10-13T18:12:19;8.38;;;2.42;;
26963;SDS011;14521;48.148;-1.656;2023-10-13T18:15:41;22.95;;;2.95;;
26963;SDS011;14521;48.148;-1.656;2023-10-13T18:19:05;14.88;;;2.63;;
26963;SDS011;14521;48.148;-1.656;2023-10-13T18:22:29;7.55;;;2.10;;
26963;SDS011;14521;48.148;-1.656;2023-10-13T18:25:51;11.32;;;2.22;;
26963;SDS011;14521;48.148;-1.656;2023-10-13T18:29:14;14.35;;;2.05;;
26963;SDS011;14521;48.148;-1.656;2023-10-13T18:32:41;12.85;;;2.47;;
26963;SDS011;14521;48.148;-1.656;2023-10-13T18:36:14;7.60;;;2.10;;
26963;SDS011;14521;48.148;-1.656;2023-10-13T18:39:38;9.45;;;1.80;;
26963;SDS011;14521;48.148;-1.656;2023-10-13T18:43:02;16.50;;;2.90;;
26963;SDS011;14521;48.148;-1.656;2023-10-13T18:46:25;9.00;;;2.10;;
26963;SDS011;14521;48.148;-1.656;2023-10-13T18:49:48;9.05;;;1.60;;
26963;SDS011;14521;48.148;-1.656;2023-10-13T18:53:10;7.13;;;1.60;;
26963;SDS011;14521;48.148;-1.656;2023-10-13T18:56:32;6.20;;;1.40;;
26963;SDS011;14521;48.148;-1.656;2023-10-13T18:59:55;7.55;;;1.88;;
26963;SDS011;14521;48.148;-1.656;2023-10-13T19:03:17;11.77;;;1.85;;
26963;SDS011;14521;48.148;-1.656;2023-10-13T19:06:40;4.93;;;1.50;;
26963;SDS011;14521;48.148;-1.656;2023-10-13T19:10:04;11.87;;;1.63;;
26963;SDS011;14521;48.148;-1.656;2023-10-13T19:13:49;8.00;;;1.73;;
26963;SDS011;14521;48.148;-1.656;2023-10-13T19:17:13;3.95;;;1.45;;
26963;SDS011;14521;48.148;-1.656;2023-10-13T19:20:39;6.75;;;1.30;;
26963;SDS011;14521;48.148;-1.656;2023-10-13T19:24:01;4.45;;;1.15;;
26963;SDS011;14521;48.148;-1.656;2023-10-13T19:27:25;7.07;;;1.10;;
26963;SDS011;14521;48.148;-1.656;2023-10-13T19:30:48;5.07;;;1.48;;
26963;SDS011;14521;48.148;-1.656;2023-10-13T19:34:10;6.93;;;1.05;;
26963;SDS011;14521;48.148;-1.656;2023-10-13T19:37:38;3.78;;;0.88;;
26963;SDS011;14521;48.148;-1.656;2023-10-13T19:41:04;4.72;;;1.40;;
26963;SDS011;14521;48.148;-1.656;2023-10-13T19:44:39;3.92;;;1.05;;
26963;SDS011;14521;48.148;-1.656;2023-10-13T19:48:08;3.08;;;1.10;;
26963;SDS011;14521;48.148;-1.656;2023-10-13T19:51:31;5.50;;;1.10;;
26963;SDS011;14521;48.148;-1.656;2023-10-13T19:54:53;5.18;;;1.33;;
26963;SDS011;14521;48.148;-1.656;2023-10-13T19:58:17;3.17;;;0.70;;
26963;SDS011;14521;48.148;-1.656;2023-10-13T20:01:39;2.42;;;1.00;;
26963;SDS011;14521;48.148;-1.656;2023-10-13T20:05:04;3.67;;;1.23;;
26963;SDS011;14521;48.148;-1.656;2023-10-13T20:08:27;4.47;;;1.10;;
26963;SDS011;14521;48.148;-1.656;2023-10-13T20:11:52;4.22;;;1.00;;
26963;SDS011;14521;48.148;-1.656;2023-10-13T20:15:15;3.47;;;1.35;;
26963;SDS011;14521;48.148;-1.656;2023-10-13T20:18:38;1.90;;;0.88;;
26963;SDS011;14521;48.148;-1.656;2023-10-13T20:22:01;2.78;;;0.82;;
26963;SDS011;14521;48.148;-1.656;2023-10-13T20:25:31;2.28;;;0.90;;
26963;SDS011;14521;48.148;-1.656;2023-10-13T20:28:54;1.70;;;0.88;;
26963;SDS011;14521;48.148;-1.656;2023-10-13T20:32:17;4.28;;;0.88;;
26963;SDS011;14521;48.148;-1.656;2023-10-13T20:35:46;2.80;;;0.68;;